createdAt,value
2023-02-14T00:02:24.336Z,56.20
2023-02-14T00:04:50.671Z,56.13
2023-02-14T00:07:16.997Z,57.06
2023-02-14T00:09:43.271Z,55.35
2023-02-14T00:12:09.557Z,54.76
2023-02-14T00:14:35.830Z,55.29
2023-02-14T00:17:02.096Z,55.46
2023-02-14T00:19:28.380Z,55.58
2023-02-14T00:21:54.649Z,55.30
2023-02-14T00:24:20.906Z,56.78
2023-02-14T00:26:47.191Z,56.31
2023-02-14T00:29:13.475Z,55.00
2023-02-14T00:31:39.872Z,56.33
2023-02-14T00:34:06.282Z,56.18
2023-02-14T00:36:32.582Z,56.78
2023-02-14T00:38:58.868Z,55.38
2023-02-14T00:41:25.246Z,55.31
2023-02-14T00:43:51.536Z,53.39
2023-02-14T00:46:17.805Z,52.98
2023-02-14T00:48:44.092Z,52.53
2023-02-14T00:51:10.357Z,52.92
2023-02-14T00:53:36.605Z,53.35
2023-02-14T00:56:02.881Z,52.84
2023-02-14T00:58:29.152Z,52.64
2023-02-14T01:00:55.508Z,53.49
2023-02-14T01:03:21.780Z,54.14
2023-02-14T01:05:48.051Z,54.24
2023-02-14T01:08:14.315Z,53.34
2023-02-14T01:10:40.582Z,53.66
2023-02-14T01:13:06.852Z,52.34
2023-02-14T01:15:33.145Z,53.64
2023-02-14T01:17:59.431Z,52.33
2023-02-14T01:20:25.726Z,52.11
2023-02-14T01:22:52.026Z,53.02
2023-02-14T01:25:18.286Z,54.03
2023-02-14T01:27:44.561Z,53.62
2023-02-14T01:30:10.847Z,52.95
2023-02-14T01:32:37.121Z,52.55
2023-02-14T01:35:03.453Z,50.59
2023-02-14T01:37:29.720Z,50.06
2023-02-14T01:39:56.019Z,49.50
2023-02-14T01:42:22.299Z,49.71
2023-02-14T01:44:48.557Z,50.17
2023-02-14T01:47:14.891Z,50.42
2023-02-14T01:49:41.181Z,50.41
2023-02-14T01:52:07.566Z,50.55
2023-02-14T01:54:33.842Z,50.69
2023-02-14T01:57:00.164Z,52.01
2023-02-14T01:59:26.468Z,52.44
2023-02-14T02:01:52.759Z,52.23
2023-02-14T02:04:19.059Z,51.69
2023-02-14T02:06:45.322Z,50.73
2023-02-14T02:09:11.586Z,49.86
2023-02-14T02:11:37.859Z,50.10
2023-02-14T02:14:04.117Z,49.33
2023-02-14T02:16:30.399Z,50.26
2023-02-14T02:18:56.690Z,49.17
2023-02-14T02:21:22.976Z,47.96
2023-02-14T02:23:49.231Z,49.08
2023-02-14T02:26:15.513Z,48.46
2023-02-14T02:28:41.783Z,48.22
2023-02-14T02:31:08.153Z,48.12
2023-02-14T02:33:34.505Z,47.57
2023-02-14T02:36:00.747Z,47.98
2023-02-14T02:38:26.997Z,47.72
2023-02-14T02:40:53.281Z,47.05
2023-02-14T02:43:19.534Z,47.47
2023-02-14T02:45:45.852Z,47.16
2023-02-14T02:48:12.117Z,46.56
2023-02-14T02:50:38.426Z,48.45
2023-02-14T02:53:04.695Z,47.47
2023-02-14T02:55:30.959Z,47.21
2023-02-14T02:57:57.228Z,46.82
2023-02-14T03:00:23.522Z,47.85
2023-02-14T03:02:49.802Z,47.89
2023-02-14T03:05:16.134Z,49.44
2023-02-14T03:07:42.443Z,49.03
2023-02-14T03:10:08.711Z,48.06
2023-02-14T03:12:35.074Z,47.16
2023-02-14T03:15:01.315Z,46.47
2023-02-14T03:17:27.579Z,48.47
2023-02-14T03:19:53.860Z,49.46
2023-02-14T03:22:20.156Z,48.32
2023-02-14T03:24:46.439Z,47.22
2023-02-14T03:27:12.825Z,49.16
2023-02-14T03:29:39.104Z,48.28
2023-02-14T03:32:05.517Z,46.46
2023-02-14T03:34:31.886Z,46.90
2023-02-14T03:36:58.142Z,47.52
2023-02-14T03:39:24.418Z,47.52
2023-02-14T03:41:50.687Z,48.02
2023-02-14T03:44:17.010Z,48.53
2023-02-14T03:46:43.335Z,47.70
2023-02-14T03:49:09.672Z,47.82
2023-02-14T03:51:35.944Z,50.40
2023-02-14T03:54:02.227Z,48.47
2023-02-14T03:56:28.505Z,50.59
2023-02-14T03:58:54.766Z,49.17
2023-02-14T04:01:21.081Z,49.37
2023-02-14T04:03:47.443Z,49.15
2023-02-14T04:06:13.801Z,48.61
2023-02-14T04:08:40.066Z,48.13
2023-02-14T04:11:06.337Z,48.44
2023-02-14T04:13:32.622Z,46.92
2023-02-14T04:15:58.959Z,47.10
2023-02-14T04:18:25.249Z,47.49
2023-02-14T04:20:51.495Z,46.57
2023-02-14T04:23:17.770Z,46.60
2023-02-14T04:25:44.017Z,44.82
2023-02-14T04:28:10.307Z,44.36
2023-02-14T04:30:36.580Z,43.71
2023-02-14T04:33:02.851Z,43.95
2023-02-14T04:35:29.129Z,44.33
2023-02-14T04:37:55.391Z,44.34
2023-02-14T04:40:21.647Z,45.20
2023-02-14T04:42:47.933Z,44.35
2023-02-14T04:45:14.210Z,45.59
2023-02-14T04:47:40.489Z,45.61
2023-02-14T04:50:06.762Z,46.92
2023-02-14T04:52:33.018Z,47.70
2023-02-14T04:54:59.282Z,47.76
2023-02-14T04:57:25.546Z,47.26
2023-02-14T04:59:51.801Z,49.30
2023-02-14T05:02:18.096Z,51.29
2023-02-14T05:04:44.465Z,50.77
2023-02-14T05:07:10.733Z,50.82
2023-02-14T05:09:37.011Z,49.29
2023-02-14T05:12:03.277Z,49.00
2023-02-14T05:14:29.651Z,48.12
2023-02-14T05:16:55.920Z,49.99
2023-02-14T05:19:22.180Z,48.92
2023-02-14T05:21:48.453Z,48.30
2023-02-14T05:24:14.712Z,47.71
2023-02-14T05:26:41.033Z,47.81
2023-02-14T05:29:07.322Z,47.01
2023-02-14T05:31:33.694Z,47.45
2023-02-14T05:33:59.998Z,47.50
2023-02-14T05:36:26.319Z,46.55
2023-02-14T05:38:52.577Z,45.16
2023-02-14T05:41:18.856Z,44.57
2023-02-14T05:43:45.124Z,45.46
2023-02-14T05:46:11.429Z,44.89
2023-02-14T05:48:37.725Z,44.44
2023-02-14T05:51:04.011Z,43.99
2023-02-14T05:53:30.282Z,44.11
2023-02-14T05:55:56.550Z,44.46
2023-02-14T05:58:22.824Z,44.96
2023-02-14T06:00:49.097Z,47.05
2023-02-14T06:03:15.387Z,47.60
2023-02-14T06:05:41.642Z,48.66
2023-02-14T06:08:07.906Z,48.63
2023-02-14T06:10:34.175Z,48.16
2023-02-14T06:13:00.449Z,46.43
2023-02-14T06:15:26.735Z,46.30
2023-02-14T06:17:52.997Z,46.43
2023-02-14T06:20:19.270Z,46.92
2023-02-14T06:22:45.544Z,46.31
2023-02-14T06:25:11.818Z,46.38
2023-02-14T06:27:38.092Z,44.61
2023-02-14T06:30:04.405Z,43.82
2023-02-14T06:32:30.707Z,43.16
2023-02-14T06:34:56.966Z,42.71
2023-02-14T06:37:23.238Z,43.09
2023-02-14T06:39:49.511Z,44.47
2023-02-14T06:42:15.779Z,43.93
2023-02-14T06:44:42.058Z,43.71
2023-02-14T06:47:08.306Z,42.85
2023-02-14T06:49:34.609Z,44.64
2023-02-14T06:52:00.881Z,45.17
2023-02-14T06:54:27.139Z,46.50
2023-02-14T06:56:53.410Z,46.04
2023-02-14T06:59:19.676Z,47.06
2023-02-14T07:01:46.038Z,46.81
2023-02-14T07:04:12.315Z,47.59
2023-02-14T07:06:38.574Z,46.79
2023-02-14T07:09:04.827Z,45.95
2023-02-14T07:11:31.110Z,45.98
2023-02-14T07:13:57.390Z,45.51
2023-02-14T07:16:23.649Z,48.55
2023-02-14T07:18:49.914Z,49.03
2023-02-14T07:21:16.218Z,49.80
2023-02-14T07:23:42.500Z,51.09
2023-02-14T07:26:08.770Z,54.15
2023-02-14T07:28:35.061Z,54.47
2023-02-14T07:31:01.828Z,56.56
2023-02-14T07:33:28.325Z,56.95
2023-02-14T07:35:54.608Z,59.29
2023-02-14T07:38:20.875Z,59.46
2023-02-14T07:40:47.170Z,59.09
2023-02-14T07:43:13.440Z,56.33
2023-02-14T07:45:39.710Z,55.64
2023-02-14T07:48:06.054Z,54.22
2023-02-14T07:50:32.355Z,52.32
2023-02-14T07:52:58.642Z,51.33
2023-02-14T07:55:24.906Z,51.04
2023-02-14T07:57:51.180Z,51.38
2023-02-14T08:00:17.457Z,51.62
2023-02-14T08:02:43.734Z,51.04
2023-02-14T08:05:10.078Z,50.84
2023-02-14T08:07:36.407Z,51.31
2023-02-14T08:10:02.696Z,49.98
2023-02-14T08:12:28.947Z,49.61
2023-02-14T08:14:55.238Z,48.67
2023-02-14T08:17:21.670Z,46.82
2023-02-14T08:19:47.933Z,48.54
2023-02-14T08:22:14.199Z,49.15
2023-02-14T08:24:40.465Z,48.47
2023-02-14T08:27:06.752Z,47.88
2023-02-14T08:29:33.034Z,47.38
2023-02-14T08:31:59.463Z,48.37
2023-02-14T08:34:25.821Z,49.47
2023-02-14T08:36:52.074Z,49.82
2023-02-14T08:39:18.370Z,51.52
2023-02-14T08:41:44.664Z,52.97
2023-02-14T08:44:11.017Z,56.16
2023-02-14T08:46:37.385Z,62.02
2023-02-14T08:49:03.691Z,64.13
2023-02-14T08:51:29.954Z,67.84
2023-02-14T08:53:56.289Z,69.26
2023-02-14T08:56:22.583Z,72.81
2023-02-14T08:58:48.889Z,74.66
2023-02-14T09:01:15.192Z,76.76
2023-02-14T09:03:41.638Z,76.35
2023-02-14T09:06:07.950Z,74.53
2023-02-14T09:08:34.246Z,74.30
2023-02-14T09:11:00.832Z,71.41
2023-02-14T09:13:27.288Z,71.59
2023-02-14T09:15:53.561Z,73.00
2023-02-14T09:18:19.861Z,72.59
2023-02-14T09:20:46.153Z,71.21
2023-02-14T09:23:12.480Z,70.04
2023-02-14T09:25:38.739Z,69.14
2023-02-14T09:28:05.010Z,71.40
2023-02-14T09:30:31.415Z,71.93
2023-02-14T09:32:57.682Z,72.13
2023-02-14T09:35:24.173Z,74.05
2023-02-14T09:37:50.501Z,73.70
2023-02-14T09:40:16.783Z,72.15
2023-02-14T09:42:43.066Z,72.65
2023-02-14T09:45:09.363Z,72.16
2023-02-14T09:47:35.670Z,71.76
2023-02-14T09:50:02.050Z,69.20
2023-02-14T09:52:28.386Z,69.43
2023-02-14T09:54:54.692Z,68.00
2023-02-14T09:57:20.967Z,67.88
2023-02-14T09:59:47.235Z,67.51
2023-02-14T10:02:14.565Z,65.95
2023-02-14T10:04:40.869Z,66.59
2023-02-14T10:07:07.374Z,66.14
2023-02-14T10:09:33.653Z,65.32
2023-02-14T10:11:59.925Z,66.50
2023-02-14T10:14:26.265Z,65.11
2023-02-14T10:16:52.619Z,64.39
2023-02-14T10:19:18.932Z,66.35
2023-02-14T10:21:47.110Z,68.61
2023-02-14T10:24:14.219Z,68.02
2023-02-14T10:26:40.465Z,67.58
2023-02-14T10:29:06.771Z,67.29
2023-02-14T10:31:33.202Z,67.09
2023-02-14T10:33:59.518Z,67.48
2023-02-14T10:36:25.778Z,69.48
2023-02-14T10:38:52.074Z,70.27
2023-02-14T10:41:18.349Z,73.36
2023-02-14T10:43:44.631Z,77.72
2023-02-14T10:46:10.980Z,76.75
2023-02-14T10:48:37.319Z,75.57
2023-02-14T10:51:03.604Z,77.20
2023-02-14T10:53:29.930Z,76.75
2023-02-14T10:55:56.201Z,72.46
2023-02-14T10:58:22.483Z,71.53
2023-02-14T11:00:48.801Z,70.05
2023-02-14T11:03:15.231Z,67.74
2023-02-14T11:05:41.582Z,63.23
2023-02-14T11:08:07.863Z,64.32
2023-02-14T11:10:34.214Z,64.54
2023-02-14T11:13:00.545Z,65.92
2023-02-14T11:15:26.846Z,57.16
2023-02-14T11:17:53.156Z,52.42
2023-02-14T11:20:19.550Z,50.56
2023-02-14T11:22:45.876Z,52.45
2023-02-14T11:25:12.175Z,52.71
2023-02-14T11:27:38.446Z,49.52
2023-02-14T11:30:04.748Z,50.72
2023-02-14T11:32:31.053Z,51.13
2023-02-14T11:34:57.324Z,50.34
2023-02-14T11:37:23.590Z,49.89
2023-02-14T11:39:49.853Z,51.34
2023-02-14T11:42:16.125Z,49.84
2023-02-14T11:44:42.406Z,51.29
2023-02-14T11:47:08.769Z,50.76
2023-02-14T11:49:35.026Z,53.47
2023-02-14T11:52:01.297Z,53.57
2023-02-14T11:54:27.568Z,51.16
2023-02-14T11:56:53.861Z,49.52
2023-02-14T11:59:20.154Z,53.41
2023-02-14T12:01:46.459Z,55.66
2023-02-14T12:04:12.747Z,56.89
2023-02-14T12:06:39.017Z,57.41
2023-02-14T12:09:05.270Z,58.10
2023-02-14T12:11:31.517Z,59.04
2023-02-14T12:13:57.789Z,56.12
2023-02-14T12:16:24.078Z,57.14
2023-02-14T12:18:50.362Z,57.70
2023-02-14T12:21:16.622Z,54.10
2023-02-14T12:23:42.905Z,55.61
2023-02-14T12:26:09.171Z,57.73
2023-02-14T12:28:35.496Z,53.73
2023-02-14T12:31:02.126Z,54.46
2023-02-14T12:33:28.606Z,54.72
2023-02-14T12:35:54.869Z,56.48
2023-02-14T12:38:21.157Z,57.04
2023-02-14T12:40:47.411Z,59.85
2023-02-14T12:43:13.706Z,58.69
2023-02-14T12:45:39.977Z,55.37
2023-02-14T12:48:06.270Z,55.55
2023-02-14T12:50:32.525Z,54.53
2023-02-14T12:52:58.795Z,53.19
2023-02-14T12:55:25.228Z,54.45
2023-02-14T12:57:51.517Z,55.88
2023-02-14T13:00:17.817Z,56.09
2023-02-14T13:02:44.156Z,56.86
2023-02-14T13:05:10.449Z,58.48
2023-02-14T13:07:36.710Z,59.53
2023-02-14T13:10:03.004Z,58.03
2023-02-14T13:12:29.293Z,55.58
2023-02-14T13:14:55.562Z,54.42
2023-02-14T13:17:21.935Z,49.60
2023-02-14T13:19:48.210Z,47.20
2023-02-14T13:22:14.576Z,46.15
2023-02-14T13:24:40.872Z,45.58
2023-02-14T13:27:07.173Z,45.87
2023-02-14T13:29:33.450Z,48.71
2023-02-14T13:31:59.732Z,50.08
2023-02-14T13:34:26.021Z,50.43
2023-02-14T13:36:52.314Z,50.71
2023-02-14T13:39:18.565Z,51.93
2023-02-14T13:41:44.854Z,51.50
2023-02-14T13:44:11.113Z,50.76
2023-02-14T13:46:37.425Z,50.86
2023-02-14T13:49:03.753Z,52.91
2023-02-14T13:51:30.345Z,54.65
2023-02-14T13:53:56.637Z,54.82
2023-02-14T13:56:22.892Z,54.12
2023-02-14T13:58:49.181Z,55.00
2023-02-14T14:01:15.491Z,54.22
2023-02-14T14:03:41.781Z,55.60
2023-02-14T14:06:08.074Z,54.64
2023-02-14T14:08:34.344Z,54.90
2023-02-14T14:11:00.648Z,53.52
2023-02-14T14:13:26.914Z,53.41
2023-02-14T14:15:53.206Z,53.71
2023-02-14T14:18:19.483Z,52.87
2023-02-14T14:20:45.733Z,51.76
2023-02-14T14:23:12.018Z,51.47
2023-02-14T14:25:38.333Z,51.09
2023-02-14T14:28:04.615Z,51.63
2023-02-14T14:30:30.942Z,50.67
2023-02-14T14:32:57.266Z,49.17
2023-02-14T14:35:23.535Z,47.84
2023-02-14T14:37:49.833Z,46.81
2023-02-14T14:40:16.157Z,45.40
2023-02-14T14:42:42.422Z,45.51
2023-02-14T14:45:08.706Z,45.08
2023-02-14T14:47:35.000Z,46.26
2023-02-14T14:50:01.311Z,46.73
2023-02-14T14:52:27.579Z,46.63
2023-02-14T14:54:53.849Z,49.21
2023-02-14T14:57:20.105Z,51.90
2023-02-14T14:59:46.364Z,49.89
2023-02-14T15:02:12.629Z,49.55
2023-02-14T15:04:38.916Z,47.94
2023-02-14T15:07:05.181Z,50.50
2023-02-14T15:09:31.464Z,43.66
2023-02-14T15:11:57.814Z,39.58
2023-02-14T15:14:24.064Z,38.98
2023-02-14T15:16:50.393Z,38.61
2023-02-14T15:19:16.696Z,40.51
2023-02-14T15:21:44.644Z,38.54
2023-02-14T15:24:11.070Z,41.37
2023-02-14T15:26:37.362Z,42.39
2023-02-14T15:29:03.635Z,43.11
2023-02-14T15:31:29.996Z,44.52
2023-02-14T15:33:56.318Z,45.10
2023-02-14T15:36:22.739Z,45.08
2023-02-14T15:38:49.003Z,46.33
2023-02-14T15:41:15.280Z,44.64
2023-02-14T15:43:41.524Z,46.29
2023-02-14T15:46:07.810Z,46.16
2023-02-14T15:48:34.094Z,46.89
2023-02-14T15:51:00.760Z,44.88
2023-02-14T15:53:27.201Z,47.13
2023-02-14T15:55:53.486Z,48.82
2023-02-14T15:58:19.772Z,47.40
2023-02-14T16:00:46.045Z,46.98
2023-02-14T16:03:12.301Z,44.93
2023-02-14T16:05:38.599Z,44.99
2023-02-14T16:08:04.909Z,44.78
2023-02-14T16:10:31.205Z,41.98
2023-02-14T16:12:57.811Z,42.43
2023-02-14T16:15:24.151Z,41.59
2023-02-14T16:17:50.418Z,42.89
2023-02-14T16:20:16.672Z,42.91
2023-02-14T16:22:42.930Z,43.74
2023-02-14T16:25:09.186Z,43.78
2023-02-14T16:27:35.459Z,44.62
2023-02-14T16:30:01.738Z,42.94
2023-02-14T16:32:28.151Z,43.80
2023-02-14T16:34:54.483Z,43.74
2023-02-14T16:37:20.757Z,42.98
2023-02-14T16:39:47.044Z,43.09
2023-02-14T16:42:13.325Z,43.07
2023-02-14T16:44:39.615Z,44.22
2023-02-14T16:47:05.910Z,44.66
2023-02-14T16:49:32.197Z,45.22
2023-02-14T16:51:58.475Z,43.96
2023-02-14T16:54:24.750Z,45.88
2023-02-14T16:56:51.054Z,48.45
2023-02-14T16:59:17.346Z,49.32
2023-02-14T17:01:43.688Z,49.09
2023-02-14T17:04:10.010Z,49.22
2023-02-14T17:06:36.508Z,51.33
2023-02-14T17:09:02.786Z,52.58
2023-02-14T17:11:29.072Z,53.97
2023-02-14T17:13:55.364Z,53.23
2023-02-14T17:16:21.683Z,51.50
2023-02-14T17:18:48.012Z,50.15
2023-02-14T17:21:14.296Z,49.45
2023-02-14T17:23:40.565Z,49.45
2023-02-14T17:26:06.846Z,50.10
2023-02-14T17:28:33.125Z,49.85
2023-02-14T17:31:00.800Z,51.43
2023-02-14T17:33:27.339Z,50.44
2023-02-14T17:35:53.682Z,45.83
2023-02-14T17:38:19.931Z,48.21
2023-02-14T17:40:46.199Z,48.46
2023-02-14T17:43:12.485Z,47.77
2023-02-14T17:45:38.737Z,49.03
2023-02-14T17:48:05.025Z,52.04
2023-02-14T17:50:31.293Z,52.53
2023-02-14T17:52:57.573Z,52.10
2023-02-14T17:55:23.847Z,52.30
2023-02-14T17:57:50.223Z,53.14
2023-02-14T18:00:16.477Z,53.37
2023-02-14T18:02:42.882Z,53.18
2023-02-14T18:05:09.159Z,53.91
2023-02-14T18:07:35.457Z,54.40
2023-02-14T18:10:01.834Z,54.06
2023-02-14T18:12:28.142Z,53.79
2023-02-14T18:14:54.397Z,55.16
2023-02-14T18:17:20.654Z,55.18
2023-02-14T18:19:46.928Z,55.74
2023-02-14T18:22:13.213Z,54.33
2023-02-14T18:24:39.478Z,53.47
2023-02-14T18:27:05.771Z,53.67
2023-02-14T18:29:32.031Z,55.16
2023-02-14T18:31:58.339Z,54.49
2023-02-14T18:34:24.711Z,53.55
2023-02-14T18:36:51.013Z,53.85
2023-02-14T18:39:17.288Z,54.44
2023-02-14T18:41:43.550Z,55.49
2023-02-14T18:44:09.820Z,56.10
2023-02-14T18:46:36.154Z,56.91
2023-02-14T18:49:02.445Z,58.43
2023-02-14T18:51:28.716Z,57.70
2023-02-14T18:53:54.988Z,56.88
2023-02-14T18:56:21.324Z,57.27
2023-02-14T18:58:47.634Z,58.93
2023-02-14T19:01:14.025Z,58.59
2023-02-14T19:03:40.326Z,58.55
2023-02-14T19:06:06.624Z,59.54
2023-02-14T19:08:32.891Z,58.88
2023-02-14T19:10:59.502Z,60.17
2023-02-14T19:13:25.922Z,60.35
2023-02-14T19:15:52.237Z,59.31
2023-02-14T19:18:18.522Z,59.16
2023-02-14T19:20:44.803Z,59.48
2023-02-14T19:23:11.056Z,59.25
2023-02-14T19:25:37.336Z,59.89
2023-02-14T19:28:03.620Z,59.86
2023-02-14T19:30:29.911Z,59.94
2023-02-14T19:32:56.267Z,59.44
2023-02-14T19:35:22.556Z,59.20
2023-02-14T19:37:48.950Z,59.33
2023-02-14T19:40:15.254Z,60.36
2023-02-14T19:42:41.519Z,61.53
2023-02-14T19:45:07.770Z,61.69
2023-02-14T19:50:06.079Z,64.01
2023-02-14T19:52:32.358Z,62.50
2023-02-14T19:54:58.614Z,61.73
2023-02-14T19:57:24.924Z,62.19
2023-02-14T19:59:51.180Z,62.14
2023-02-14T20:02:17.491Z,62.84
2023-02-14T20:04:43.806Z,61.75
2023-02-14T20:07:10.107Z,61.44
2023-02-14T20:09:36.385Z,61.02
2023-02-14T20:12:02.653Z,61.09
2023-02-14T20:14:28.938Z,59.40
2023-02-14T20:16:55.275Z,59.25
2023-02-14T20:19:21.581Z,59.83
2023-02-14T20:21:48.020Z,59.15
2023-02-14T20:24:14.278Z,59.15
2023-02-14T20:26:40.530Z,58.13
2023-02-14T20:29:06.872Z,59.04
2023-02-14T20:31:33.336Z,59.98
2023-02-14T20:33:59.653Z,59.93
2023-02-14T20:36:25.936Z,62.47
2023-02-14T20:38:52.201Z,59.39
2023-02-14T20:41:18.495Z,60.06
2023-02-14T20:43:44.841Z,61.66
2023-02-14T20:46:11.174Z,60.53
2023-02-14T20:48:37.549Z,61.52
2023-02-14T20:51:03.841Z,61.00
2023-02-14T20:53:30.374Z,60.88
2023-02-14T20:55:56.633Z,61.28
2023-02-14T20:58:22.932Z,60.48
2023-02-14T21:00:49.211Z,61.16
2023-02-14T21:03:15.578Z,59.80
2023-02-14T21:05:41.848Z,59.09
2023-02-14T21:08:08.098Z,59.23
2023-02-14T21:10:34.352Z,57.74
2023-02-14T21:13:00.627Z,58.77
2023-02-14T21:15:26.943Z,58.11
2023-02-14T21:17:53.219Z,58.21
2023-02-14T21:20:19.472Z,58.85
2023-02-14T21:22:45.744Z,58.51
2023-02-14T21:25:12.102Z,57.11
2023-02-14T21:27:38.355Z,56.23
2023-02-14T21:30:04.651Z,57.70
2023-02-14T21:32:30.948Z,58.02
2023-02-14T21:34:57.228Z,58.84
2023-02-14T21:37:23.493Z,60.32
2023-02-14T21:39:49.770Z,62.06
2023-02-14T21:42:16.018Z,63.47
2023-02-14T21:44:42.287Z,61.83
2023-02-14T21:47:08.552Z,60.87
2023-02-14T21:49:34.829Z,58.98
2023-02-14T21:52:01.087Z,56.90
2023-02-14T21:54:27.354Z,57.67
2023-02-14T21:56:53.621Z,55.93
2023-02-14T21:59:19.898Z,55.71
2023-02-14T22:01:46.199Z,54.93
2023-02-14T22:04:12.572Z,56.34
2023-02-14T22:06:38.938Z,54.67
2023-02-14T22:09:05.224Z,55.72
2023-02-14T22:11:31.498Z,54.95
2023-02-14T22:13:57.790Z,54.36
2023-02-14T22:16:24.064Z,54.14
2023-02-14T22:18:50.371Z,54.59
2023-02-14T22:21:16.647Z,54.00
2023-02-14T22:23:43.036Z,53.64
2023-02-14T22:26:09.294Z,53.95
2023-02-14T22:28:35.584Z,53.93
2023-02-14T22:31:02.239Z,55.25
2023-02-14T22:33:28.787Z,55.09
2023-02-14T22:35:55.049Z,55.73
2023-02-14T22:38:21.367Z,54.90
2023-02-14T22:40:47.645Z,56.48
2023-02-14T22:43:13.899Z,56.23
2023-02-14T22:45:40.171Z,55.51
2023-02-14T22:48:06.435Z,53.77
2023-02-14T22:50:32.791Z,54.46
2023-02-14T22:52:59.078Z,54.15
2023-02-14T22:55:25.336Z,54.80
2023-02-14T22:57:51.633Z,55.06
2023-02-14T23:00:17.900Z,54.81
2023-02-14T23:02:44.208Z,54.05
2023-02-14T23:05:10.519Z,54.79
2023-02-14T23:07:36.817Z,54.05
2023-02-14T23:10:03.112Z,53.80
2023-02-14T23:12:29.426Z,53.24
2023-02-14T23:14:55.688Z,53.22
2023-02-14T23:17:21.982Z,53.51
2023-02-14T23:19:48.264Z,51.61
2023-02-14T23:22:14.550Z,51.03
2023-02-14T23:24:40.824Z,50.50
2023-02-14T23:27:07.073Z,51.37
2023-02-14T23:29:33.342Z,51.54
2023-02-14T23:31:59.650Z,51.78
2023-02-14T23:34:25.988Z,51.24
2023-02-14T23:36:52.234Z,51.69
2023-02-14T23:39:18.501Z,50.88
2023-02-14T23:41:44.777Z,49.77
2023-02-14T23:44:11.032Z,48.88
2023-02-14T23:46:37.297Z,53.22
2023-02-14T23:49:03.555Z,54.00
2023-02-14T23:51:29.810Z,53.06
2023-02-14T23:53:56.087Z,52.57
2023-02-14T23:56:22.379Z,52.16
2023-02-14T23:58:48.644Z,52.31
